^^
Station Historical Data
Daily Summary for January 10, 2019 Units:  English    Metric   Both
« Previous Day
Next Day »
Daily Weekly Monthly Yearly Custom
  High: Low: Average:
Temperature: 24.9 °F 6.6 °F 14.9 °F
Dew Point: 17.2 °F 2.9 °F 10.1 °F
Humidity: 91% 71% 81%
Wind Speed: 24.0mph 0.0mph 7.8mph
Wind Gust: 26.0mph - -
Wind- - SE
Pressure: 30.28 in 30.04 in -
Precipitation: 0.00 in    
Historical Graphs
 
 
Tabular Data for January 10, 2019
Time Temperature Dew Point Pressure Wind Wind Speed Wind Gust Humidity Rainfall Rate (Hourly) solar Conditions
00:04 11.2 °F 6.2 °F 30.27 in ESE 14.0 mph 22.0 mph 80% 0.00 in 0.00 W/m2
00:09 11.1 °F 6.1 °F 30.27 in ESE 14.0 mph 23.0 mph 80% 0.00 in 0.00 W/m2
00:14 11.1 °F 6.1 °F 30.27 in ESE 17.0 mph 24.0 mph 80% 0.00 in 0.00 W/m2
00:19 11.0 °F 6.0 °F 30.28 in ESE 17.0 mph 24.0 mph 80% 0.00 in 0.00 W/m2
00:24 10.9 °F 5.9 °F 30.28 in ESE 21.0 mph 23.0 mph 80% 0.00 in 0.00 W/m2
00:29 10.8 °F 5.8 °F 30.27 in ESE 17.0 mph 22.0 mph 80% 0.00 in 0.00 W/m2
00:34 10.7 °F 5.7 °F 30.27 in ESE 17.0 mph 25.0 mph 80% 0.00 in 0.00 W/m2
00:39 10.6 °F 5.6 °F 30.26 in ESE 12.0 mph 25.0 mph 80% 0.00 in 0.00 W/m2
00:44 10.6 °F 5.6 °F 30.26 in ESE 16.0 mph 26.0 mph 80% 0.00 in 0.00 W/m2
00:49 10.6 °F 5.6 °F 30.27 in ESE 18.0 mph 26.0 mph 80% 0.00 in 0.00 W/m2
00:54 10.5 °F 5.5 °F 30.26 in ESE 24.0 mph 25.0 mph 80% 0.00 in 0.00 W/m2
00:59 10.4 °F 5.5 °F 30.26 in ESE 9.0 mph 25.0 mph 80% 0.00 in 0.00 W/m2
01:04 10.2 °F 5.3 °F 30.26 in ESE 15.0 mph 23.0 mph 80% 0.00 in 0.00 W/m2
01:09 10.1 °F 5.2 °F 30.25 in ESE 17.0 mph 23.0 mph 80% 0.00 in 0.00 W/m2
01:14 10.0 °F 5.1 °F 30.25 in ESE 16.0 mph 23.0 mph 80% 0.00 in 0.00 W/m2
01:19 9.9 °F 5.0 °F 30.25 in ESE 16.0 mph 24.0 mph 80% 0.00 in 0.00 W/m2
01:24 9.7 °F 4.8 °F 30.25 in ESE 16.0 mph 24.0 mph 80% 0.00 in 0.00 W/m2
01:29 9.7 °F 4.8 °F 30.24 in ESE 15.0 mph 23.0 mph 80% 0.00 in 0.00 W/m2
01:34 9.6 °F 4.7 °F 30.24 in ESE 16.0 mph 23.0 mph 80% 0.00 in 0.00 W/m2
01:39 9.5 °F 4.8 °F 30.23 in ESE 14.0 mph 22.0 mph 81% 0.00 in 0.00 W/m2
01:44 9.4 °F 4.7 °F 30.23 in East 20.0 mph 22.0 mph 81% 0.00 in 0.00 W/m2
01:49 9.4 °F 4.7 °F 30.23 in ESE 17.0 mph 23.0 mph 81% 0.00 in 0.00 W/m2
01:54 9.3 °F 4.4 °F 30.23 in ESE 16.0 mph 23.0 mph 80% 0.00 in 0.00 W/m2
01:59 9.3 °F 4.4 °F 30.23 in East 23.0 mph 23.0 mph 80% 0.00 in 0.00 W/m2
02:04 9.3 °F 4.4 °F 30.24 in ESE 11.0 mph 23.0 mph 80% 0.00 in 0.00 W/m2
02:09 9.2 °F 4.3 °F 30.24 in ESE 13.0 mph 23.0 mph 80% 0.00 in 0.00 W/m2
02:14 9.2 °F 4.3 °F 30.25 in ESE 11.0 mph 18.0 mph 80% 0.00 in 0.00 W/m2
02:19 9.1 °F 4.2 °F 30.25 in SE 11.0 mph 18.0 mph 80% 0.00 in 0.00 W/m2
02:24 9.1 °F 4.2 °F 30.25 in SE 14.0 mph 17.0 mph 80% 0.00 in 0.00 W/m2
02:29 9.1 °F 4.2 °F 30.24 in East 10.0 mph 15.0 mph 80% 0.00 in 0.00 W/m2
02:34 9.0 °F 4.1 °F 30.24 in ESE 7.0 mph 15.0 mph 80% 0.00 in 0.00 W/m2
02:39 8.9 °F 4.0 °F 30.24 in ESE 14.0 mph 16.0 mph 80% 0.00 in 0.00 W/m2
02:44 8.8 °F 3.9 °F 30.25 in ESE 10.0 mph 16.0 mph 80% 0.00 in 0.00 W/m2
02:49 8.7 °F 3.8 °F 30.25 in ESE 12.0 mph 16.0 mph 80% 0.00 in 0.00 W/m2
02:54 8.7 °F 3.8 °F 30.24 in ESE 12.0 mph 16.0 mph 80% 0.00 in 0.00 W/m2
02:59 8.7 °F 3.8 °F 30.25 in ESE 12.0 mph 16.0 mph 80% 0.00 in 0.00 W/m2
03:04 8.7 °F 3.5 °F 30.25 in East 8.0 mph 17.0 mph 79% 0.00 in 0.00 W/m2
03:09 8.7 °F 3.5 °F 30.25 in ESE 10.0 mph 17.0 mph 79% 0.00 in 0.00 W/m2
03:14 8.7 °F 3.5 °F 30.25 in ESE 8.0 mph 15.0 mph 79% 0.00 in 0.00 W/m2
03:19 8.5 °F 3.3 °F 30.25 in East 7.0 mph 15.0 mph 79% 0.00 in 0.00 W/m2
03:24 8.4 °F 3.5 °F 30.25 in ESE 5.0 mph 13.0 mph 80% 0.00 in 0.00 W/m2
03:29 8.3 °F 3.4 °F 30.25 in ESE 9.0 mph 13.0 mph 80% 0.00 in 0.00 W/m2
03:34 8.2 °F 3.3 °F 30.25 in ESE 7.0 mph 12.0 mph 80% 0.00 in 0.00 W/m2
03:39 8.1 °F 3.2 °F 30.25 in ESE 9.0 mph 12.0 mph 80% 0.00 in 0.00 W/m2
03:44 8.1 °F 3.2 °F 30.24 in ESE 10.0 mph 12.0 mph 80% 0.00 in 0.00 W/m2
03:49 8.0 °F 3.1 °F 30.24 in ESE 9.0 mph 13.0 mph 80% 0.00 in 0.00 W/m2
03:54 8.0 °F 3.1 °F 30.24 in ESE 8.0 mph 13.0 mph 80% 0.00 in 0.00 W/m2
03:59 8.1 °F 3.2 °F 30.24 in ESE 13.0 mph 14.0 mph 80% 0.00 in 0.00 W/m2
04:04 8.1 °F 3.2 °F 30.23 in ESE 7.0 mph 15.0 mph 80% 0.00 in 0.00 W/m2
04:09 8.0 °F 3.1 °F 30.23 in SE 9.0 mph 15.0 mph 80% 0.00 in 0.00 W/m2
04:14 8.0 °F 3.1 °F 30.22 in SE 9.0 mph 15.0 mph 80% 0.00 in 0.00 W/m2
04:19 8.0 °F 3.1 °F 30.23 in SE 9.0 mph 15.0 mph 80% 0.00 in 0.00 W/m2
04:24 7.9 °F 3.0 °F 30.22 in ESE 10.0 mph 13.0 mph 80% 0.00 in 0.00 W/m2
04:29 8.0 °F 3.1 °F 30.21 in ESE 13.0 mph 14.0 mph 80% 0.00 in 0.00 W/m2
04:34 7.9 °F 3.3 °F 30.21 in ESE 12.0 mph 15.0 mph 81% 0.00 in 0.00 W/m2
04:39 8.0 °F 3.4 °F 30.21 in ESE 13.0 mph 16.0 mph 81% 0.00 in 0.00 W/m2
04:44 8.0 °F 3.4 °F 30.20 in ESE 10.0 mph 16.0 mph 81% 0.00 in 0.00 W/m2
04:49 8.0 °F 3.4 °F 30.20 in East 13.0 mph 16.0 mph 81% 0.00 in 0.00 W/m2
04:54 8.0 °F 3.4 °F 30.20 in ESE 9.0 mph 16.0 mph 81% 0.00 in 0.00 W/m2
04:59 8.0 °F 3.4 °F 30.20 in ESE 11.0 mph 15.0 mph 81% 0.00 in 0.00 W/m2
05:04 8.0 °F 3.4 °F 30.20 in SE 9.0 mph 15.0 mph 81% 0.00 in 0.00 W/m2
05:09 7.9 °F 3.3 °F 30.21 in ESE 10.0 mph 14.0 mph 81% 0.00 in 0.00 W/m2
05:14 7.9 °F 3.3 °F 30.20 in ESE 10.0 mph 17.0 mph 81% 0.00 in 0.00 W/m2
05:19 7.7 °F 3.1 °F 30.20 in ESE 9.0 mph 17.0 mph 81% 0.00 in 0.00 W/m2
05:24 7.5 °F 2.9 °F 30.20 in SE 11.0 mph 15.0 mph 81% 0.00 in 0.00 W/m2
05:29 7.5 °F 2.9 °F 30.19 in ESE 13.0 mph 16.0 mph 81% 0.00 in 0.00 W/m2
05:34 7.7 °F 3.4 °F 30.18 in ESE 11.0 mph 17.0 mph 82% 0.00 in 0.00 W/m2
05:39 7.7 °F 3.4 °F 30.18 in SE 13.0 mph 17.0 mph 82% 0.00 in 0.00 W/m2
05:44 7.7 °F 3.4 °F 30.19 in ESE 13.0 mph 16.0 mph 82% 0.00 in 0.00 W/m2
05:49 7.7 °F 3.4 °F 30.19 in SE 8.0 mph 17.0 mph 82% 0.00 in 0.00 W/m2
05:54 7.6 °F 3.5 °F 30.20 in SE 8.0 mph 17.0 mph 83% 0.00 in 0.00 W/m2
05:59 7.5 °F 3.2 °F 30.20 in SE 7.0 mph 16.0 mph 82% 0.00 in 0.00 W/m2
06:04 7.4 °F 3.3 °F 30.20 in ESE 11.0 mph 14.0 mph 83% 0.00 in 0.00 W/m2
06:09 7.3 °F 3.2 °F 30.20 in ESE 9.0 mph 12.0 mph 83% 0.00 in 0.00 W/m2
06:14 7.2 °F 3.1 °F 30.20 in ESE 8.0 mph 11.0 mph 83% 0.00 in 0.00 W/m2
06:19 7.1 °F 3.0 °F 30.20 in ESE 7.0 mph 13.0 mph 83% 0.00 in 0.00 W/m2
06:24 7.0 °F 2.9 °F 30.19 in ESE 5.0 mph 13.0 mph 83% 0.00 in 0.00 W/m2
06:29 7.1 °F 3.0 °F 30.19 in ESE 10.0 mph 13.0 mph 83% 0.00 in 0.00 W/m2
06:34 7.2 °F 3.4 °F 30.19 in SE 8.0 mph 13.0 mph 84% 0.00 in 0.00 W/m2
06:39 7.2 °F 3.4 °F 30.19 in ESE 7.0 mph 13.0 mph 84% 0.00 in 0.00 W/m2
06:44 7.2 °F 3.4 °F 30.19 in SE 8.0 mph 13.0 mph 84% 0.00 in 0.00 W/m2
06:49 7.2 °F 3.4 °F 30.19 in ESE 11.0 mph 13.0 mph 84% 0.00 in 0.00 W/m2
06:54 7.3 °F 3.5 °F 30.18 in ESE 11.0 mph 13.0 mph 84% 0.00 in 0.00 W/m2
06:59 7.3 °F 3.5 °F 30.18 in ESE 11.0 mph 13.0 mph 84% 0.00 in 0.00 W/m2
07:04 7.3 °F 3.5 °F 30.18 in ESE 9.0 mph 12.0 mph 84% 0.00 in 0.00 W/m2
07:09 7.3 °F 3.5 °F 30.19 in ESE 9.0 mph 12.0 mph 84% 0.00 in 0.00 W/m2
07:14 7.3 °F 3.7 °F 30.18 in ESE 10.0 mph 13.0 mph 85% 0.00 in 0.00 W/m2
07:19 7.4 °F 3.8 °F 30.18 in ESE 7.0 mph 14.0 mph 85% 0.00 in 0.00 W/m2
07:24 7.3 °F 3.7 °F 30.18 in ESE 12.0 mph 14.0 mph 85% 0.00 in 0.00 W/m2
07:29 7.2 °F 3.6 °F 30.17 in SE 12.0 mph 14.0 mph 85% 0.00 in 0.00 W/m2
07:34 7.2 °F 3.6 °F 30.17 in ESE 11.0 mph 14.0 mph 85% 0.00 in 0.00 W/m2
07:39 7.1 °F 3.5 °F 30.17 in SE 8.0 mph 14.0 mph 85% 0.00 in 0.00 W/m2
07:44 7.1 °F 3.5 °F 30.17 in East 9.0 mph 14.0 mph 85% 0.00 in 0.00 W/m2
07:49 7.1 °F 3.5 °F 30.16 in SE 10.0 mph 14.0 mph 85% 0.00 in 0.00 W/m2
07:54 7.1 °F 3.5 °F 30.17 in ESE 9.0 mph 14.0 mph 85% 0.00 in 0.00 W/m2
07:59 7.1 °F 3.5 °F 30.16 in ESE 12.0 mph 14.0 mph 85% 0.00 in 0.00 W/m2
08:04 7.0 °F 3.4 °F 30.16 in SE 9.0 mph 14.0 mph 85% 0.00 in 0.00 W/m2
08:09 6.9 °F 3.3 °F 30.16 in ESE 11.0 mph 14.0 mph 85% 0.00 in 0.00 W/m2
08:14 6.7 °F 3.1 °F 30.16 in ESE 10.0 mph 13.0 mph 85% 0.00 in 0.00 W/m2
08:19 6.7 °F 3.1 °F 30.16 in ESE 9.0 mph 13.0 mph 85% 0.00 in 5.00 W/m2
08:24 6.6 °F 3.0 °F 30.16 in SE 8.0 mph 13.0 mph 85% 0.00 in 5.00 W/m2
08:29 6.7 °F 3.4 °F 30.16 in ESE 8.0 mph 13.0 mph 86% 0.00 in 5.00 W/m2
08:34 6.7 °F 3.4 °F 30.16 in SE 8.0 mph 12.0 mph 86% 0.00 in 7.00 W/m2
08:39 6.8 °F 3.5 °F 30.16 in SE 10.0 mph 13.0 mph 86% 0.00 in 12.00 W/m2
08:44 6.9 °F 3.6 °F 30.16 in ESE 10.0 mph 14.0 mph 86% 0.00 in 18.00 W/m2
08:49 7.1 °F 3.8 °F 30.16 in ESE 11.0 mph 15.0 mph 86% 0.00 in 23.00 W/m2
08:54 7.2 °F 3.9 °F 30.16 in ESE 9.0 mph 15.0 mph 86% 0.00 in 26.00 W/m2
08:59 7.3 °F 4.0 °F 30.16 in ESE 8.0 mph 13.0 mph 86% 0.00 in 32.00 W/m2
09:04 7.3 °F 4.0 °F 30.16 in ESE 9.0 mph 14.0 mph 86% 0.00 in 39.00 W/m2
09:09 7.4 °F 4.1 °F 30.16 in SE 8.0 mph 14.0 mph 86% 0.00 in 42.00 W/m2
09:14 7.5 °F 4.2 °F 30.16 in SE 9.0 mph 14.0 mph 86% 0.00 in 47.00 W/m2
09:19 7.6 °F 4.3 °F 30.15 in ESE 12.0 mph 14.0 mph 86% 0.00 in 54.00 W/m2
09:24 7.7 °F 4.4 °F 30.15 in SE 13.0 mph 15.0 mph 86% 0.00 in 63.00 W/m2
09:29 7.8 °F 4.5 °F 30.14 in SE 8.0 mph 15.0 mph 86% 0.00 in 70.00 W/m2
09:34 8.1 °F 4.8 °F 30.14 in SE 8.0 mph 15.0 mph 86% 0.00 in 79.00 W/m2
09:39 8.4 °F 5.1 °F 30.14 in SE 13.0 mph 17.0 mph 86% 0.00 in 84.00 W/m2
09:44 8.6 °F 5.3 °F 30.15 in SE 10.0 mph 17.0 mph 86% 0.00 in 91.00 W/m2
09:49 8.8 °F 5.2 °F 30.15 in SSE 9.0 mph 17.0 mph 85% 0.00 in 98.00 W/m2
09:54 9.0 °F 5.4 °F 30.15 in SE 9.0 mph 17.0 mph 85% 0.00 in 109.00 W/m2
09:59 9.2 °F 5.6 °F 30.16 in SE 9.0 mph 16.0 mph 85% 0.00 in 118.00 W/m2
10:04 9.4 °F 5.8 °F 30.16 in SE 7.0 mph 16.0 mph 85% 0.00 in 116.00 W/m2
10:09 9.6 °F 6.0 °F 30.16 in SE 9.0 mph 16.0 mph 85% 0.00 in 125.00 W/m2
10:14 9.8 °F 6.2 °F 30.16 in SE 9.0 mph 14.0 mph 85% 0.00 in 130.00 W/m2
10:19 10.1 °F 6.5 °F 30.15 in SSE 7.0 mph 13.0 mph 85% 0.00 in 149.00 W/m2
10:24 10.4 °F 6.8 °F 30.15 in SSE 11.0 mph 16.0 mph 85% 0.00 in 160.00 W/m2
10:29 10.7 °F 7.1 °F 30.15 in SE 10.0 mph 16.0 mph 85% 0.00 in 155.00 W/m2
10:34 10.9 °F 7.0 °F 30.15 in SE 11.0 mph 14.0 mph 84% 0.00 in 149.00 W/m2
10:39 11.2 °F 7.3 °F 30.14 in SE 13.0 mph 15.0 mph 84% 0.00 in 197.00 W/m2
10:44 11.4 °F 7.5 °F 30.14 in SSE 10.0 mph 15.0 mph 84% 0.00 in 246.00 W/m2
10:49 11.7 °F 7.5 °F 30.14 in SE 11.0 mph 15.0 mph 83% 0.00 in 248.00 W/m2
10:54 11.9 °F 7.7 °F 30.14 in SE 12.0 mph 16.0 mph 83% 0.00 in 220.00 W/m2
10:59 12.0 °F 7.8 °F 30.14 in ESE 13.0 mph 16.0 mph 83% 0.00 in 221.00 W/m2
11:04 12.2 °F 8.0 °F 30.13 in SE 11.0 mph 15.0 mph 83% 0.00 in 209.00 W/m2
11:09 12.3 °F 8.1 °F 30.13 in SE 6.0 mph 15.0 mph 83% 0.00 in 257.00 W/m2
11:14 12.8 °F 8.6 °F 30.13 in SE 10.0 mph 15.0 mph 83% 0.00 in 258.00 W/m2
11:19 13.1 °F 8.6 °F 30.13 in SE 6.0 mph 12.0 mph 82% 0.00 in 287.00 W/m2
11:24 13.5 °F 9.3 °F 30.13 in SSE 7.0 mph 12.0 mph 83% 0.00 in 294.00 W/m2
11:29 14.1 °F 9.6 °F 30.13 in SSE 5.0 mph 11.0 mph 82% 0.00 in 295.00 W/m2
11:34 14.5 °F 9.7 °F 30.12 in SE 10.0 mph 11.0 mph 81% 0.00 in 297.00 W/m2
11:39 14.6 °F 9.8 °F 30.12 in SSE 7.0 mph 10.0 mph 81% 0.00 in 299.00 W/m2
11:44 15.1 °F 10.3 °F 30.12 in SSE 6.0 mph 10.0 mph 81% 0.00 in 359.00 W/m2
11:49 15.6 °F 10.5 °F 30.11 in SE 9.0 mph 10.0 mph 80% 0.00 in 353.00 W/m2
11:54 15.6 °F 10.5 °F 30.11 in SE 6.0 mph 10.0 mph 80% 0.00 in 367.00 W/m2
11:59 15.8 °F 10.4 °F 30.11 in SE 6.0 mph 11.0 mph 79% 0.00 in 334.00 W/m2
12:04 16.2 °F 10.8 °F 30.10 in SSE 9.0 mph 12.0 mph 79% 0.00 in 315.00 W/m2
12:09 16.3 °F 10.9 °F 30.10 in South 7.0 mph 12.0 mph 79% 0.00 in 353.00 W/m2
12:14 16.6 °F 11.2 °F 30.10 in SSE 11.0 mph 13.0 mph 79% 0.00 in 348.00 W/m2
12:19 17.0 °F 11.6 °F 30.10 in SSE 6.0 mph 13.0 mph 79% 0.00 in 316.00 W/m2
12:24 17.2 °F 11.5 °F 30.10 in South 7.0 mph 11.0 mph 78% 0.00 in 244.00 W/m2
12:29 17.4 °F 11.7 °F 30.10 in South 6.0 mph 11.0 mph 78% 0.00 in 148.00 W/m2
12:34 17.4 °F 11.7 °F 30.09 in SSE 5.0 mph 9.0 mph 78% 0.00 in 218.00 W/m2
12:39 17.9 °F 12.2 °F 30.09 in South 5.0 mph 9.0 mph 78% 0.00 in 366.00 W/m2
12:44 18.5 °F 12.5 °F 30.09 in South 4.0 mph 8.0 mph 77% 0.00 in 348.00 W/m2
12:49 19.0 °F 13.0 °F 30.09 in South 6.0 mph 8.0 mph 77% 0.00 in 366.00 W/m2
12:54 19.3 °F 13.0 °F 30.09 in South 6.0 mph 8.0 mph 76% 0.00 in 357.00 W/m2
12:59 19.7 °F 13.1 °F 30.08 in South 6.0 mph 8.0 mph 75% 0.00 in 359.00 W/m2
13:04 20.1 °F 13.4 °F 30.08 in SSW 5.0 mph 9.0 mph 75% 0.00 in 316.00 W/m2
13:09 20.6 °F 13.9 °F 30.08 in SSW 9.0 mph 10.0 mph 75% 0.00 in 355.00 W/m2
13:14 20.9 °F 13.9 °F 30.07 in SSE 7.0 mph 12.0 mph 74% 0.00 in 364.00 W/m2
13:19 21.3 °F 14.3 °F 30.07 in SSW 5.0 mph 12.0 mph 74% 0.00 in 360.00 W/m2
13:24 21.6 °F 14.6 °F 30.07 in South 7.0 mph 11.0 mph 74% 0.00 in 378.00 W/m2
13:29 21.8 °F 14.5 °F 30.07 in SSW 3.0 mph 9.0 mph 73% 0.00 in 378.00 W/m2
13:34 22.3 °F 15.0 °F 30.06 in South 7.0 mph 9.0 mph 73% 0.00 in 295.00 W/m2
13:39 22.4 °F 14.7 °F 30.07 in SSE 6.0 mph 10.0 mph 72% 0.00 in 353.00 W/m2
13:44 22.3 °F 15.0 °F 30.06 in SSE 8.0 mph 10.0 mph 73% 0.00 in 376.00 W/m2
13:49 22.0 °F 14.7 °F 30.06 in SSE 6.0 mph 13.0 mph 73% 0.00 in 357.00 W/m2
13:54 22.2 °F 15.2 °F 30.06 in South 6.0 mph 13.0 mph 74% 0.00 in 183.00 W/m2
13:59 22.5 °F 15.8 °F 30.06 in South 8.0 mph 10.0 mph 75% 0.00 in 295.00 W/m2
14:04 22.7 °F 15.7 °F 30.06 in South 8.0 mph 12.0 mph 74% 0.00 in 264.00 W/m2
14:09 22.7 °F 15.3 °F 30.06 in SSE 10.0 mph 12.0 mph 73% 0.00 in 225.00 W/m2
14:14 22.8 °F 15.8 °F 30.07 in South 9.0 mph 11.0 mph 74% 0.00 in 262.00 W/m2
14:19 23.1 °F 16.0 °F 30.07 in South 8.0 mph 12.0 mph 74% 0.00 in 200.00 W/m2
14:24 23.4 °F 16.3 °F 30.07 in SSW 7.0 mph 12.0 mph 74% 0.00 in 209.00 W/m2
14:29 23.7 °F 16.3 °F 30.07 in SSW 7.0 mph 11.0 mph 73% 0.00 in 236.00 W/m2
14:34 23.9 °F 16.5 °F 30.07 in South 6.0 mph 10.0 mph 73% 0.00 in 202.00 W/m2
14:39 23.9 °F 16.2 °F 30.07 in SSW 7.0 mph 10.0 mph 72% 0.00 in 211.00 W/m2
14:44 24.1 °F 16.7 °F 30.07 in SSW 5.0 mph 11.0 mph 73% 0.00 in 178.00 W/m2
14:49 24.1 °F 16.7 °F 30.07 in South 7.0 mph 11.0 mph 73% 0.00 in 132.00 W/m2
14:54 24.3 °F 16.9 °F 30.07 in South 9.0 mph 12.0 mph 73% 0.00 in 199.00 W/m2
14:59 24.3 °F 16.6 °F 30.07 in SSW 7.0 mph 12.0 mph 72% 0.00 in 190.00 W/m2
15:04 24.5 °F 16.8 °F 30.07 in South 7.0 mph 10.0 mph 72% 0.00 in 178.00 W/m2
15:09 24.6 °F 16.9 °F 30.07 in South 7.0 mph 10.0 mph 72% 0.00 in 197.00 W/m2
15:14 24.7 °F 17.0 °F 30.07 in South 5.0 mph 9.0 mph 72% 0.00 in 202.00 W/m2
15:19 24.9 °F 17.1 °F 30.07 in South 5.0 mph 9.0 mph 72% 0.00 in 186.00 W/m2
15:24 24.9 °F 16.8 °F 30.06 in South 5.0 mph 9.0 mph 71% 0.00 in 163.00 W/m2
15:29 24.8 °F 17.1 °F 30.07 in South 6.0 mph 9.0 mph 72% 0.00 in 128.00 W/m2
15:34 24.7 °F 17.0 °F 30.07 in South 4.0 mph 9.0 mph 72% 0.00 in 104.00 W/m2
15:39 24.7 °F 17.0 °F 30.06 in South 5.0 mph 7.0 mph 72% 0.00 in 81.00 W/m2
15:44 24.6 °F 16.9 °F 30.07 in South 2.0 mph 7.0 mph 72% 0.00 in 70.00 W/m2
15:49 24.5 °F 16.8 °F 30.06 in SSE 3.0 mph 6.0 mph 72% 0.00 in 69.00 W/m2
15:54 24.4 °F 17.0 °F 30.06 in SSE 2.0 mph 5.0 mph 73% 0.00 in 60.00 W/m2
15:59 24.3 °F 16.9 °F 30.06 in SSE 1.0 mph 5.0 mph 73% 0.00 in 58.00 W/m2
16:04 24.1 °F 17.0 °F 30.06 in SSE 4.0 mph 5.0 mph 74% 0.00 in 46.00 W/m2
16:09 23.9 °F 16.8 °F 30.06 in SSE 4.0 mph 5.0 mph 74% 0.00 in 42.00 W/m2
16:14 23.7 °F 16.9 °F 30.06 in SSE 6.0 mph 6.0 mph 75% 0.00 in 42.00 W/m2
16:19 23.6 °F 16.8 °F 30.06 in SE 5.0 mph 6.0 mph 75% 0.00 in 40.00 W/m2
16:24 23.5 °F 16.7 °F 30.06 in SSE 5.0 mph 6.0 mph 75% 0.00 in 42.00 W/m2
16:29 23.4 °F 16.9 °F 30.06 in SSE 4.0 mph 6.0 mph 76% 0.00 in 40.00 W/m2
16:34 23.4 °F 16.9 °F 30.06 in SSE 3.0 mph 6.0 mph 76% 0.00 in 37.00 W/m2
16:39 23.4 °F 16.9 °F 30.06 in SE 4.0 mph 6.0 mph 76% 0.00 in 33.00 W/m2
16:44 23.4 °F 16.9 °F 30.06 in ESE 3.0 mph 6.0 mph 76% 0.00 in 28.00 W/m2
16:49 23.3 °F 16.9 °F 30.06 in ESE 3.0 mph 5.0 mph 76% 0.00 in 25.00 W/m2
16:54 23.2 °F 16.8 °F 30.06 in ESE 2.0 mph 4.0 mph 76% 0.00 in 21.00 W/m2
16:59 23.0 °F 16.6 °F 30.06 in ESE 4.0 mph 5.0 mph 76% 0.00 in 14.00 W/m2
17:04 22.9 °F 16.5 °F 30.06 in ESE 3.0 mph 5.0 mph 76% 0.00 in 11.00 W/m2
17:09 22.8 °F 16.4 °F 30.06 in ESE 3.0 mph 4.0 mph 76% 0.00 in 7.00 W/m2
17:14 22.7 °F 16.6 °F 30.06 in ESE 4.0 mph 5.0 mph 77% 0.00 in 0.00 W/m2
17:19 22.6 °F 16.5 °F 30.06 in ESE 5.0 mph 7.0 mph 77% 0.00 in 0.00 W/m2
17:24 22.4 °F 16.3 °F 30.06 in SE 5.0 mph 7.0 mph 77% 0.00 in 0.00 W/m2
17:29 22.1 °F 16.3 °F 30.06 in ESE 4.0 mph 7.0 mph 78% 0.00 in 0.00 W/m2
17:34 22.0 °F 16.2 °F 30.05 in ESE 5.0 mph 8.0 mph 78% 0.00 in 0.00 W/m2
17:39 21.8 °F 16.0 °F 30.06 in ESE 7.0 mph 8.0 mph 78% 0.00 in 0.00 W/m2
17:44 21.5 °F 15.7 °F 30.06 in ESE 5.0 mph 8.0 mph 78% 0.00 in 0.00 W/m2
17:49 21.2 °F 15.7 °F 30.05 in SE 6.0 mph 9.0 mph 79% 0.00 in 0.00 W/m2
17:54 20.8 °F 15.3 °F 30.05 in SE 7.0 mph 9.0 mph 79% 0.00 in 0.00 W/m2
17:59 20.6 °F 15.4 °F 30.05 in ESE 4.0 mph 8.0 mph 80% 0.00 in 0.00 W/m2
18:04 20.6 °F 15.4 °F 30.05 in ESE 5.0 mph 9.0 mph 80% 0.00 in 0.00 W/m2
18:09 20.5 °F 15.3 °F 30.05 in ESE 7.0 mph 9.0 mph 80% 0.00 in 0.00 W/m2
18:14 20.4 °F 15.2 °F 30.05 in SE 7.0 mph 9.0 mph 80% 0.00 in 0.00 W/m2
18:19 20.3 °F 15.4 °F 30.05 in ESE 4.0 mph 9.0 mph 81% 0.00 in 0.00 W/m2
18:24 20.2 °F 15.3 °F 30.05 in ESE 5.0 mph 9.0 mph 81% 0.00 in 0.00 W/m2
18:29 20.2 °F 15.3 °F 30.06 in ESE 5.0 mph 8.0 mph 81% 0.00 in 0.00 W/m2
18:34 20.2 °F 15.3 °F 30.05 in SE 6.0 mph 8.0 mph 81% 0.00 in 0.00 W/m2
18:39 19.9 °F 15.0 °F 30.06 in SE 5.0 mph 7.0 mph 81% 0.00 in 0.00 W/m2
18:44 19.9 °F 15.3 °F 30.06 in SE 5.0 mph 7.0 mph 82% 0.00 in 0.00 W/m2
18:49 19.9 °F 15.6 °F 30.06 in East 6.0 mph 7.0 mph 83% 0.00 in 0.00 W/m2
18:54 19.8 °F 15.2 °F 30.06 in East 5.0 mph 7.0 mph 82% 0.00 in 0.00 W/m2
18:59 19.6 °F 15.0 °F 30.06 in ESE 5.0 mph 7.0 mph 82% 0.00 in 0.00 W/m2
19:04 19.5 °F 15.2 °F 30.05 in ESE 7.0 mph 7.0 mph 83% 0.00 in 0.00 W/m2
19:09 19.4 °F 17.2 °F 30.05 in East 8.0 mph 8.0 mph 91% 0.00 in 0.00 W/m2
19:14 19.7 °F 15.6 °F 30.05 in ENE 7.0 mph 8.0 mph 84% 0.00 in 0.00 W/m2
19:19 19.8 °F 15.5 °F 30.05 in East 7.0 mph 8.0 mph 83% 0.00 in 0.00 W/m2
19:24 19.7 °F 15.4 °F 30.05 in East 5.0 mph 7.0 mph 83% 0.00 in 0.00 W/m2
19:29 19.7 °F 15.4 °F 30.05 in East 5.0 mph 7.0 mph 83% 0.00 in 0.00 W/m2
19:34 19.8 °F 15.7 °F 30.05 in East 5.0 mph 7.0 mph 84% 0.00 in 0.00 W/m2
19:39 20.1 °F 16.0 °F 30.05 in East 5.0 mph 7.0 mph 84% 0.00 in 0.00 W/m2
19:44 20.0 °F 15.9 °F 30.05 in East 7.0 mph 7.0 mph 84% 0.00 in 0.00 W/m2
19:49 19.8 °F 15.5 °F 30.05 in ESE 5.0 mph 7.0 mph 83% 0.00 in 0.00 W/m2
19:54 19.7 °F 15.6 °F 30.05 in East 5.0 mph 7.0 mph 84% 0.00 in 0.00 W/m2
19:59 19.7 °F 15.6 °F 30.05 in East 6.0 mph 7.0 mph 84% 0.00 in 0.00 W/m2
20:04 19.6 °F 15.6 °F 30.05 in ESE 5.0 mph 7.0 mph 84% 0.00 in 0.00 W/m2
20:09 19.6 °F 15.6 °F 30.05 in East 5.0 mph 7.0 mph 84% 0.00 in 0.00 W/m2
20:14 19.8 °F 15.7 °F 30.05 in East 5.0 mph 7.0 mph 84% 0.00 in 0.00 W/m2
20:19 19.8 °F 15.7 °F 30.04 in East 5.0 mph 7.0 mph 84% 0.00 in 0.00 W/m2
20:24 19.8 °F 15.7 °F 30.04 in East 5.0 mph 6.0 mph 84% 0.00 in 0.00 W/m2
20:29 19.6 °F 15.6 °F 30.04 in East 5.0 mph 6.0 mph 84% 0.00 in 0.00 W/m2
20:34 19.4 °F 15.1 °F 30.04 in ESE 4.0 mph 6.0 mph 83% 0.00 in 0.00 W/m2
20:39 19.2 °F 15.2 °F 30.04 in ESE 4.0 mph 6.0 mph 84% 0.00 in 0.00 W/m2
20:44 19.1 °F 15.1 °F 30.04 in ESE 4.0 mph 5.0 mph 84% 0.00 in 0.00 W/m2
20:49 19.0 °F 15.2 °F 30.04 in ESE 5.0 mph 5.0 mph 85% 0.00 in 0.00 W/m2
20:54 19.3 °F 15.5 °F 30.04 in ESE 5.0 mph 7.0 mph 85% 0.00 in 0.00 W/m2
20:59 19.4 °F 15.6 °F 30.04 in ESE 5.0 mph 7.0 mph 85% 0.00 in 0.00 W/m2
21:04 19.4 °F 15.6 °F 30.04 in ESE 5.0 mph 5.0 mph 85% 0.00 in 0.00 W/m2
21:09 19.2 °F 15.4 °F 30.04 in ESE 4.0 mph 5.0 mph 85% 0.00 in 0.00 W/m2
21:14 19.0 °F 15.2 °F 30.04 in ESE 5.0 mph 5.0 mph 85% 0.00 in 0.00 W/m2
21:19 19.0 °F 15.2 °F 30.04 in East 3.0 mph 6.0 mph 85% 0.00 in 0.00 W/m2
21:24 19.0 °F 15.2 °F 30.04 in East 6.0 mph 6.0 mph 85% 0.00 in 0.00 W/m2
21:29 19.1 °F 15.3 °F 30.04 in East 5.0 mph 7.0 mph 85% 0.00 in 0.00 W/m2
21:34 19.1 °F 15.3 °F 30.05 in East 3.0 mph 7.0 mph 85% 0.00 in 0.00 W/m2
21:39 19.1 °F 15.3 °F 30.05 in East 5.0 mph 7.0 mph 85% 0.00 in 0.00 W/m2
21:44 19.1 °F 15.3 °F 30.05 in East 5.0 mph 6.0 mph 85% 0.00 in 0.00 W/m2
21:49 19.1 °F 15.6 °F 30.05 in East 5.0 mph 6.0 mph 86% 0.00 in 0.00 W/m2
21:54 18.9 °F 15.1 °F 30.05 in ESE 5.0 mph 7.0 mph 85% 0.00 in 0.00 W/m2
21:59 19.0 °F 15.5 °F 30.05 in East 3.0 mph 7.0 mph 86% 0.00 in 0.00 W/m2
22:04 19.0 °F 15.5 °F 30.05 in East 3.0 mph 6.0 mph 86% 0.00 in 0.00 W/m2
22:09 19.4 °F 15.9 °F 30.05 in East 3.0 mph 5.0 mph 86% 0.00 in 0.00 W/m2
22:14 19.3 °F 15.8 °F 30.05 in ESE 3.0 mph 5.0 mph 86% 0.00 in 0.00 W/m2
22:19 19.3 °F 15.5 °F 30.05 in ESE 3.0 mph 5.0 mph 85% 0.00 in 0.00 W/m2
22:24 19.2 °F 15.4 °F 30.05 in ESE 3.0 mph 4.0 mph 85% 0.00 in 0.00 W/m2
22:29 19.2 °F 15.7 °F 30.05 in ESE 2.0 mph 4.0 mph 86% 0.00 in 0.00 W/m2
22:34 19.4 °F 15.9 °F 30.06 in ESE 2.0 mph 3.0 mph 86% 0.00 in 0.00 W/m2
22:39 19.7 °F 16.2 °F 30.06 in ESE 2.0 mph 3.0 mph 86% 0.00 in 0.00 W/m2
22:44 20.1 °F 16.6 °F 30.06 in ESE 1.0 mph 2.0 mph 86% 0.00 in 0.00 W/m2
22:49 20.3 °F 16.8 °F 30.06 in Calm   2.0 mph 86% 0.00 in 0.00 W/m2
22:54 20.5 °F 17.0 °F 30.06 in Calm   2.0 mph 86% 0.00 in 0.00 W/m2
22:59 20.4 °F 16.6 °F 30.06 in ESE 2.0 mph 2.0 mph 85% 0.00 in 0.00 W/m2
23:04 20.4 °F 16.6 °F 30.06 in ESE 1.0 mph 3.0 mph 85% 0.00 in 0.00 W/m2
23:09 20.2 °F 16.1 °F 30.06 in ESE 3.0 mph 4.0 mph 84% 0.00 in 0.00 W/m2
23:14 19.6 °F 15.3 °F 30.06 in ESE 4.0 mph 4.0 mph 83% 0.00 in 0.00 W/m2
23:19 19.2 °F 15.2 °F 30.06 in ESE 3.0 mph 4.0 mph 84% 0.00 in 0.00 W/m2
23:24 18.9 °F 14.9 °F 30.07 in ESE 3.0 mph 4.0 mph 84% 0.00 in 0.00 W/m2
23:29 18.9 °F 15.1 °F 30.07 in ESE 2.0 mph 4.0 mph 85% 0.00 in 0.00 W/m2
23:34 18.9 °F 15.1 °F 30.07 in ESE 3.0 mph 3.0 mph 85% 0.00 in 0.00 W/m2
23:39 18.4 °F 14.4 °F 30.07 in ESE 3.0 mph 3.0 mph 84% 0.00 in 0.00 W/m2
23:44 18.5 °F 15.0 °F 30.07 in Calm   3.0 mph 86% 0.00 in 0.00 W/m2
23:49 18.9 °F 15.4 °F 30.07 in ESE 1.0 mph 3.0 mph 86% 0.00 in 0.00 W/m2
23:54 19.2 °F 15.7 °F 30.07 in Calm   3.0 mph 86% 0.00 in 0.00 W/m2
23:59 19.4 °F 15.6 °F 30.07 in Calm   2.0 mph 85% 0.00 in 0.00 W/m2
Bismarck, North Dakota, USA
Compliments of Weather Underground - 4 mb